Hlavní strana
METAR-TAF:

METAR-TAF

Letiště :

Tahiti, Francouzská Polynésie

zeměpisná šířka: 17-33S, zeměpisná délka: 149-37W, výška: 2 m

Aktuální stav počasí

Zpráva byla vytvořena před 28 minutami, v 22:30 UTC
Jihojihozápadní vítr 12 kt
Teplota 28°C
Vlhkost vzduchu 70%
Tlak 1014 hPa
Viditelnost 10 km a více
Skoro jasno ve výšce 2300 ft

METAR: NTAA 182230Z 21012KT 9999 FEW023 28/22 Q1014 NOSIG

Čas: 12:58 (22:58 UTC)

Předpověď počasí

Zpráva byla vytvořena před 1 hodinou a 12 minutami, v 21:46 UTC
Předpověď platná od 18 v 21 UTC do 19 v 24 UTC
vítr z různých směrů 5 kt
Viditelnost 10 km a více
Skoro jasno ve výšce 2300 ft
Dočasný
od 18 v 21 UTC do 19 v 03 UTC
Západojihozápadní vítr 10 kt

TAF: NTAA 182146Z 1821/1924 VRB05KT 9999 FEW023 TEMPO 1821/1903 24010KT

Stav a předpovědi počasí z více než 4 000 letišť (zprávy METAR a TAF).

Červené a žluté tečky na mapě představují dostupné meteorologické stanice.

Když kurzor umístíte na tečku, zobrazí se název stanice.

Pak kliknutím zobrazíte stav a předpověď počasí.

Chcete-li změnit mapu, kliknutím na zelené tlačítko se znaménkem +mapu přiblížíte, kliknutím na zelené tlačítko se znaménkem – mapu oddálíte a kliknutím na zelené šipky přejdete na sousední mapy.


METAR-TAF: